createdAt,value
2022-10-17T00:01:40.868Z,99286.06
2022-10-17T00:04:15.231Z,99301.63
2022-10-17T00:06:48.007Z,99290.00
2022-10-17T00:09:20.839Z,99287.28
2022-10-17T00:11:53.638Z,99291.50
2022-10-17T00:14:26.592Z,99286.44
2022-10-17T00:16:59.437Z,99283.50
2022-10-17T00:19:33.647Z,99284.66
2022-10-17T00:22:06.399Z,99295.50
2022-10-17T00:24:39.226Z,99301.59
2022-10-17T00:27:12.006Z,99308.84
2022-10-17T00:29:45.141Z,99291.97
2022-10-17T00:32:18.060Z,99286.97
2022-10-17T00:34:52.257Z,99286.56
2022-10-17T00:37:25.533Z,99291.22
2022-10-17T00:39:58.372Z,99298.13
2022-10-17T00:42:31.460Z,99300.88
2022-10-17T00:45:22.298Z,99318.94
2022-10-17T00:47:59.902Z,99316.38
2022-10-17T00:50:35.555Z,99321.81
2022-10-17T00:53:10.582Z,99339.00
2022-10-17T00:55:48.908Z,99334.69
2022-10-17T00:58:22.610Z,99332.69
2022-10-17T01:00:55.473Z,99334.41
2022-10-17T01:03:28.620Z,99348.97
2022-10-17T01:06:02.937Z,99347.78
2022-10-17T01:08:36.231Z,99334.41
2022-10-17T01:11:22.652Z,99327.81
2022-10-17T01:14:04.171Z,99346.63
2022-10-17T01:16:45.725Z,99350.66
2022-10-17T01:19:38.871Z,99359.47
2022-10-17T01:22:19.780Z,99357.94
2022-10-17T01:25:24.674Z,99366.63
2022-10-17T01:28:19.890Z,99375.31
2022-10-17T01:31:09.010Z,99369.19
2022-10-17T01:33:54.892Z,99374.19
2022-10-17T01:36:39.242Z,99390.16
2022-10-17T01:39:20.193Z,99387.41
2022-10-17T01:42:00.860Z,99404.41
2022-10-17T01:44:38.829Z,99395.25
2022-10-17T01:47:18.633Z,99395.16
2022-10-17T01:49:55.032Z,99404.09
2022-10-17T01:52:33.848Z,99408.94
2022-10-17T01:55:12.421Z,99414.81
2022-10-17T01:57:50.972Z,99407.78
2022-10-17T02:00:26.224Z,99414.06
2022-10-17T02:03:05.752Z,99413.72
2022-10-17T02:05:41.343Z,99413.25
2022-10-17T02:08:14.795Z,99424.56
2022-10-17T02:10:56.138Z,99435.53
2022-10-17T02:13:41.247Z,99426.72
2022-10-17T02:16:25.694Z,99435.19
2022-10-17T02:19:19.400Z,99432.69
2022-10-17T02:22:02.999Z,99429.94
2022-10-17T02:24:46.617Z,99436.59
2022-10-17T02:27:30.555Z,99432.16
2022-10-17T02:30:10.104Z,99428.97
2022-10-17T02:32:50.253Z,99436.50
2022-10-17T02:35:29.290Z,99424.94
2022-10-17T02:38:05.747Z,99428.03
2022-10-17T02:40:41.035Z,99436.72
2022-10-17T02:43:14.858Z,99431.94
2022-10-17T02:45:48.620Z,99422.66
2022-10-17T02:48:29.253Z,99422.66
2022-10-17T02:51:11.154Z,99422.44
2022-10-17T02:53:54.718Z,99430.28
2022-10-17T02:56:30.442Z,99438.28
2022-10-17T02:59:04.658Z,99445.03
2022-10-17T03:01:38.012Z,99437.66
2022-10-17T03:04:13.220Z,99443.38
2022-10-17T03:06:48.874Z,99464.59
2022-10-17T03:09:21.678Z,99471.03
2022-10-17T03:11:54.473Z,99465.19
2022-10-17T03:14:27.320Z,99457.56
2022-10-17T03:17:00.129Z,99470.22
2022-10-17T03:19:32.974Z,99458.75
2022-10-17T03:22:07.183Z,99467.44
2022-10-17T03:24:39.975Z,99474.22
2022-10-17T03:27:13.013Z,99473.00
2022-10-17T03:29:45.840Z,99479.69
2022-10-17T03:32:18.654Z,99474.13
2022-10-17T03:34:51.482Z,99476.59
2022-10-17T03:37:25.784Z,99476.50
2022-10-17T03:39:58.793Z,99476.97
2022-10-17T03:42:32.914Z,99475.75
2022-10-17T03:45:06.574Z,99482.00
2022-10-17T03:47:39.362Z,99482.81
2022-10-17T03:50:12.473Z,99490.44
2022-10-17T03:52:49.885Z,99488.38
2022-10-17T03:55:22.698Z,99492.47
2022-10-17T03:57:55.472Z,99500.91
2022-10-17T04:00:28.282Z,99493.84
2022-10-17T04:03:01.092Z,99490.53
2022-10-17T04:05:33.894Z,99500.63
2022-10-17T04:08:08.236Z,99490.00
2022-10-17T04:10:41.074Z,99493.63
2022-10-17T04:13:13.860Z,99487.97
2022-10-17T04:15:55.397Z,99483.00
2022-10-17T04:18:28.886Z,99500.75
2022-10-17T04:21:02.512Z,99491.06
2022-10-17T04:23:36.922Z,99505.63
2022-10-17T04:26:09.748Z,99510.72
2022-10-17T04:28:42.536Z,99507.84
2022-10-17T04:31:16.256Z,99520.22
2022-10-17T04:33:49.949Z,99514.97
2022-10-17T04:36:23.375Z,99508.59
2022-10-17T04:38:57.570Z,99523.13
2022-10-17T04:41:30.383Z,99526.94
2022-10-17T04:44:03.800Z,99525.94
2022-10-17T04:46:36.624Z,99528.59
2022-10-17T04:49:09.901Z,99537.19
2022-10-17T04:51:42.710Z,99545.88
2022-10-17T04:54:17.137Z,99542.53
2022-10-17T04:56:49.943Z,99545.13
2022-10-17T04:59:22.700Z,99551.84
2022-10-17T05:01:55.507Z,99555.63
2022-10-17T05:04:28.357Z,99558.66
2022-10-17T05:07:01.178Z,99560.09
2022-10-17T05:09:35.362Z,99566.66
2022-10-17T05:12:10.305Z,99559.72
2022-10-17T05:14:43.343Z,99569.78
2022-10-17T05:17:16.157Z,99565.38
2022-10-17T05:19:48.982Z,99566.28
2022-10-17T05:22:21.790Z,99572.41
2022-10-17T05:24:56.047Z,99570.91
2022-10-17T05:27:28.835Z,99582.47
2022-10-17T05:30:01.620Z,99582.97
2022-10-17T05:32:34.437Z,99595.06
2022-10-17T05:35:08.217Z,99610.53
2022-10-17T05:37:41.022Z,99620.06
2022-10-17T05:40:15.503Z,99624.63
2022-10-17T05:42:48.771Z,99624.22
2022-10-17T05:45:21.565Z,99645.28
2022-10-17T05:47:54.372Z,99643.56
2022-10-17T05:50:27.168Z,99655.53
2022-10-17T05:52:59.944Z,99654.38
2022-10-17T05:55:34.105Z,99665.78
2022-10-17T05:58:06.882Z,99669.63
2022-10-17T06:00:39.652Z,99688.25
2022-10-17T06:03:13.559Z,99686.03
2022-10-17T06:05:47.570Z,99697.00
2022-10-17T06:08:20.468Z,99693.03
2022-10-17T06:10:54.653Z,99691.75
2022-10-17T06:13:27.519Z,99704.56
2022-10-17T06:16:00.356Z,99701.69
2022-10-17T06:18:33.860Z,99712.78
2022-10-17T06:21:08.998Z,99717.09
2022-10-17T06:23:41.861Z,99720.03
2022-10-17T06:26:16.243Z,99721.69
2022-10-17T06:28:49.081Z,99724.41
2022-10-17T06:31:21.933Z,99717.84
2022-10-17T06:33:54.774Z,99731.38
2022-10-17T06:36:27.999Z,99736.06
2022-10-17T06:39:01.125Z,99736.44
2022-10-17T06:41:35.294Z,99746.81
2022-10-17T06:44:11.246Z,99754.38
2022-10-17T06:46:44.065Z,99759.50
2022-10-17T06:49:16.866Z,99759.31
2022-10-17T06:51:49.820Z,99759.09
2022-10-17T06:54:22.707Z,99769.78
2022-10-17T06:56:57.219Z,99772.56
2022-10-17T06:59:30.116Z,99784.53
2022-10-17T07:02:03.579Z,99790.81
2022-10-17T07:04:36.363Z,99803.22
2022-10-17T07:07:09.506Z,99804.31
2022-10-17T07:09:42.315Z,99814.00
2022-10-17T07:12:16.493Z,99821.16
2022-10-17T07:14:50.497Z,99820.72
2022-10-17T07:17:23.600Z,99830.44
2022-10-17T07:19:57.060Z,99843.44
2022-10-17T07:22:29.880Z,99852.69
2022-10-17T07:25:03.630Z,99859.63
2022-10-17T07:27:38.363Z,99860.88
2022-10-17T07:30:13.713Z,99866.78
2022-10-17T07:32:47.617Z,99875.59
2022-10-17T07:35:21.616Z,99877.28
2022-10-17T07:37:54.876Z,99885.94
2022-10-17T07:40:28.749Z,99893.72
2022-10-17T07:43:03.471Z,99898.97
2022-10-17T07:45:36.396Z,99899.38
2022-10-17T07:48:09.156Z,99902.34
2022-10-17T07:50:41.941Z,99907.81
2022-10-17T07:53:14.953Z,99903.19
2022-10-17T07:55:49.724Z,99912.81
2022-10-17T07:58:24.072Z,99915.75
2022-10-17T08:00:57.062Z,99920.16
2022-10-17T08:03:30.136Z,99919.31
2022-10-17T08:06:04.032Z,99920.16
2022-10-17T08:08:36.833Z,99918.41
2022-10-17T08:11:11.668Z,99921.34
2022-10-17T08:13:45.880Z,99918.59
2022-10-17T08:16:18.691Z,99924.78
2022-10-17T08:18:51.485Z,99931.00
2022-10-17T08:21:24.319Z,99938.09
2022-10-17T08:23:57.545Z,99949.41
2022-10-17T08:26:30.726Z,99949.09
2022-10-17T08:29:04.965Z,99958.91
2022-10-17T08:31:37.782Z,99961.34
2022-10-17T08:34:10.561Z,99964.03
2022-10-17T08:36:43.500Z,99975.81
2022-10-17T08:39:16.278Z,99975.22
2022-10-17T08:42:04.331Z,99987.97
2022-10-17T08:44:50.459Z,99988.69
2022-10-17T08:47:29.366Z,99990.19
2022-10-17T08:50:05.651Z,99995.75
2022-10-17T08:52:42.676Z,100004.03
2022-10-17T08:57:52.226Z,100016.31
2022-10-17T09:00:27.494Z,100014.81
2022-10-17T09:03:15.528Z,100016.50
2022-10-17T09:05:54.236Z,100018.13
2022-10-17T09:08:41.969Z,100010.13
2022-10-17T09:11:29.677Z,100023.91
2022-10-17T09:14:16.883Z,100024.06
2022-10-17T09:17:04.274Z,100026.09
2022-10-17T09:19:40.964Z,100034.97
2022-10-17T09:22:18.115Z,100040.09
2022-10-17T09:24:55.571Z,100045.09
2022-10-17T09:27:36.465Z,100043.75
2022-10-17T09:30:46.280Z,100039.47
2022-10-17T09:33:35.327Z,100042.41
2022-10-17T09:36:19.223Z,100041.03
2022-10-17T09:38:55.482Z,100049.16
2022-10-17T09:41:50.279Z,100053.31
2022-10-17T09:44:25.465Z,100071.41
2022-10-17T09:47:09.157Z,100067.38
2022-10-17T09:49:44.995Z,100067.41
2022-10-17T09:52:21.692Z,100083.63
2022-10-17T09:54:58.180Z,100087.09
2022-10-17T09:57:55.106Z,100091.44
2022-10-17T10:00:30.395Z,100112.19
2022-10-17T10:03:17.454Z,100111.72
2022-10-17T10:06:03.384Z,100114.94
2022-10-17T10:08:38.952Z,100122.22
2022-10-17T10:11:13.988Z,100130.69
2022-10-17T10:13:50.160Z,100131.72
2022-10-17T10:16:25.376Z,100136.50
2022-10-17T10:18:58.677Z,100134.09
2022-10-17T10:21:33.451Z,100136.59
2022-10-17T10:24:14.233Z,100139.47
2022-10-17T10:26:49.573Z,100136.47
2022-10-17T10:29:30.801Z,100142.38
2022-10-17T10:32:19.873Z,100151.06
2022-10-17T10:34:56.681Z,100142.97
2022-10-17T10:37:34.933Z,100155.72
2022-10-17T10:40:17.966Z,100163.69
2022-10-17T10:42:53.067Z,100178.06
2022-10-17T10:45:47.965Z,100180.47
2022-10-17T10:48:23.611Z,100183.63
2022-10-17T10:51:00.580Z,100194.69
2022-10-17T10:53:44.139Z,100199.13
2022-10-17T10:56:21.878Z,100204.00
2022-10-17T10:58:59.704Z,100213.44
2022-10-17T11:01:40.679Z,100205.56
2022-10-17T11:04:28.560Z,100222.00
2022-10-17T11:07:05.938Z,100226.00
2022-10-17T11:09:50.922Z,100239.00
2022-10-17T11:12:28.845Z,100225.88
2022-10-17T11:15:09.828Z,100231.28
2022-10-17T11:17:54.072Z,100217.19
2022-10-17T11:20:34.500Z,100224.97
2022-10-17T11:23:19.956Z,100237.19
2022-10-17T11:25:58.326Z,100253.66
2022-10-17T11:28:31.908Z,100252.03
2022-10-17T11:31:09.009Z,100253.88
2022-10-17T11:33:48.175Z,100260.41
2022-10-17T11:36:25.386Z,100262.63
2022-10-17T11:39:02.707Z,100280.03
2022-10-17T11:41:43.000Z,100272.53
2022-10-17T11:44:23.593Z,100288.28
2022-10-17T11:47:01.119Z,100294.72
2022-10-17T11:49:41.040Z,100285.47
2022-10-17T11:52:54.919Z,100284.47
2022-10-17T11:55:24.843Z,100286.13
2022-10-17T11:58:25.301Z,100293.31
2022-10-17T12:01:08.624Z,100286.50
2022-10-17T12:03:55.267Z,100298.25
2022-10-17T12:06:44.067Z,100310.34
2022-10-17T12:09:25.330Z,100319.53
2022-10-17T12:12:00.670Z,100309.16
2022-10-17T12:14:42.894Z,100304.59
2022-10-17T12:17:30.642Z,100316.03
2022-10-17T12:20:28.399Z,100305.56
2022-10-17T12:23:21.159Z,100311.91
2022-10-17T12:25:59.649Z,100326.31
2022-10-17T12:28:44.830Z,100323.34
2022-10-17T12:31:32.493Z,100326.59
2022-10-17T12:34:06.950Z,100325.41
2022-10-17T12:36:40.300Z,100314.16
2022-10-17T12:39:46.188Z,100307.28
2022-10-17T12:42:46.701Z,100314.88
2022-10-17T12:45:51.427Z,100324.34
2022-10-17T12:49:01.925Z,100311.78
2022-10-17T12:52:16.664Z,100314.41
2022-10-17T12:55:07.076Z,100316.03
2022-10-17T12:57:58.633Z,100320.72
2022-10-17T13:00:36.880Z,100330.28
2022-10-17T13:03:15.184Z,100343.13
2022-10-17T13:05:52.415Z,100328.81
2022-10-17T13:08:29.525Z,100331.13
2022-10-17T13:11:03.868Z,100337.91
2022-10-17T13:13:42.823Z,100337.75
2022-10-17T13:16:29.415Z,100339.50
2022-10-17T13:19:04.516Z,100344.78
2022-10-17T13:21:38.682Z,100340.50
2022-10-17T13:24:30.282Z,100351.94
2022-10-17T13:27:04.042Z,100356.09
2022-10-17T13:29:44.962Z,100366.53
2022-10-17T13:32:17.998Z,100366.91
2022-10-17T13:35:06.526Z,100397.81
2022-10-17T13:37:43.533Z,100391.28
2022-10-17T13:40:40.911Z,100394.16
2022-10-17T13:43:17.965Z,100404.63
2022-10-17T13:45:53.010Z,100407.53
2022-10-17T13:48:29.485Z,100417.34
2022-10-17T13:51:08.947Z,100403.00
2022-10-17T13:53:44.922Z,100404.63
2022-10-17T13:56:28.360Z,100401.72
2022-10-17T13:59:10.805Z,100411.13
2022-10-17T14:01:43.903Z,100418.75
2022-10-17T14:04:20.174Z,100429.97
2022-10-17T14:06:54.022Z,100432.66
2022-10-17T14:09:31.295Z,100437.16
2022-10-17T14:12:12.815Z,100448.66
2022-10-17T14:15:09.649Z,100457.25
2022-10-17T14:17:45.162Z,100449.84
2022-10-17T14:21:07.787Z,100460.72
2022-10-17T14:23:31.053Z,100461.06
2022-10-17T14:26:15.104Z,100460.06
2022-10-17T14:28:50.064Z,100469.66
2022-10-17T14:31:27.046Z,100478.25
2022-10-17T14:34:02.019Z,100484.69
2022-10-17T14:36:39.055Z,100488.72
2022-10-17T14:39:20.796Z,100489.41
2022-10-17T14:41:57.212Z,100497.53
2022-10-17T14:44:33.709Z,100491.91
2022-10-17T14:47:41.569Z,100503.34
2022-10-17T14:50:23.228Z,100495.50
2022-10-17T14:53:04.895Z,100502.06
2022-10-17T14:55:39.601Z,100506.44
2022-10-17T14:58:25.848Z,100509.31
2022-10-17T15:01:00.156Z,100512.75
2022-10-17T15:03:32.951Z,100506.28
2022-10-17T15:06:19.350Z,100507.63
2022-10-17T15:08:52.119Z,100511.56
2022-10-17T15:11:25.063Z,100512.09
2022-10-17T15:13:59.422Z,100509.38
2022-10-17T15:16:33.538Z,100521.53
2022-10-17T15:19:06.332Z,100517.25
2022-10-17T15:21:43.234Z,100527.56
2022-10-17T15:24:17.495Z,100519.81
2022-10-17T15:26:50.522Z,100532.38
2022-10-17T15:29:24.682Z,100542.31
2022-10-17T15:31:57.448Z,100536.41
2022-10-17T15:34:30.197Z,100531.28
2022-10-17T15:37:03.106Z,100545.66
2022-10-17T15:39:35.858Z,100553.31
2022-10-17T15:42:12.689Z,100550.66
2022-10-17T15:44:49.664Z,100554.53
2022-10-17T15:47:26.514Z,100571.22
2022-10-17T15:49:59.704Z,100565.84
2022-10-17T15:52:32.576Z,100566.50
2022-10-17T15:55:05.879Z,100562.81
2022-10-17T15:57:42.486Z,100569.03
2022-10-17T16:00:19.420Z,100560.38
2022-10-17T16:02:52.298Z,100564.41
2022-10-17T16:05:26.943Z,100561.75
2022-10-17T16:07:59.741Z,100574.44
2022-10-17T16:10:40.805Z,100591.69
2022-10-17T16:13:18.996Z,100598.88
2022-10-17T16:15:53.899Z,100605.50
2022-10-17T16:18:26.809Z,100617.56
2022-10-17T16:20:59.789Z,100616.44
2022-10-17T16:23:32.711Z,100624.06
2022-10-17T16:26:05.660Z,100625.69
2022-10-17T16:28:41.331Z,100620.63
2022-10-17T16:31:22.837Z,100625.78
2022-10-17T16:33:57.125Z,100627.06
2022-10-17T16:36:30.010Z,100620.53
2022-10-17T16:39:02.837Z,100632.97
2022-10-17T16:41:37.834Z,100633.47
2022-10-17T16:44:14.513Z,100634.09
2022-10-17T16:46:48.715Z,100628.44
2022-10-17T16:49:21.560Z,100634.56
2022-10-17T16:51:54.340Z,100646.59
2022-10-17T16:54:27.235Z,100642.78
2022-10-17T16:56:59.994Z,100652.66
2022-10-17T16:59:32.792Z,100652.44
2022-10-17T17:02:07.232Z,100655.56
2022-10-17T17:04:40.130Z,100658.31
2022-10-17T17:07:12.978Z,100657.44
2022-10-17T17:09:45.983Z,100658.88
2022-10-17T17:12:19.049Z,100661.34
2022-10-17T17:14:51.860Z,100665.66
2022-10-17T17:17:44.322Z,100666.63
2022-10-17T17:20:19.163Z,100673.06
2022-10-17T17:22:52.391Z,100672.59
2022-10-17T17:25:25.388Z,100677.84
2022-10-17T17:27:58.191Z,100692.59
2022-10-17T17:30:31.061Z,100696.84
2022-10-17T17:33:05.196Z,100704.97
2022-10-17T17:35:40.116Z,100720.22
2022-10-17T17:38:13.013Z,100732.75
2022-10-17T17:40:50.565Z,100738.78
2022-10-17T17:43:24.343Z,100742.66
2022-10-17T17:45:57.413Z,100758.31
2022-10-17T17:48:31.701Z,100763.63
2022-10-17T17:51:05.341Z,100773.03
2022-10-17T17:53:39.251Z,100782.78
2022-10-17T17:56:14.236Z,100790.34
2022-10-17T17:58:48.855Z,100797.34
2022-10-17T18:01:23.660Z,100807.00
2022-10-17T18:04:00.003Z,100806.75
2022-10-17T18:06:33.060Z,100811.19
2022-10-17T18:09:07.381Z,100815.00
2022-10-17T18:11:40.194Z,100810.06
2022-10-17T18:14:13.689Z,100811.84
2022-10-17T18:16:46.484Z,100811.94
2022-10-17T18:19:22.207Z,100811.94
2022-10-17T18:21:55.065Z,100815.63
2022-10-17T18:24:27.889Z,100818.84
2022-10-17T18:27:01.583Z,100828.91
2022-10-17T18:29:34.459Z,100833.81
2022-10-17T18:32:07.258Z,100836.09
2022-10-17T18:34:41.818Z,100837.88
2022-10-17T18:37:14.608Z,100845.41
2022-10-17T18:39:51.480Z,100854.72
2022-10-17T18:42:24.740Z,100861.63
2022-10-17T18:44:57.530Z,100866.81
2022-10-17T18:47:30.493Z,100865.00
2022-10-17T18:50:05.113Z,100872.88
2022-10-17T18:52:37.880Z,100876.81
2022-10-17T18:55:10.886Z,100877.88
2022-10-17T18:57:43.756Z,100888.72
2022-10-17T19:00:17.501Z,100880.59
2022-10-17T19:02:51.948Z,100890.59
2022-10-17T19:05:26.437Z,100892.06
2022-10-17T19:07:59.570Z,100898.84
2022-10-17T19:10:33.773Z,100904.88
2022-10-17T19:13:06.780Z,100902.28
2022-10-17T19:15:39.906Z,100902.03
2022-10-17T19:18:12.730Z,100896.13
2022-10-17T19:20:47.108Z,100910.06
2022-10-17T19:23:19.889Z,100913.84
2022-10-17T19:25:54.154Z,100926.47
2022-10-17T19:28:28.933Z,100923.41
2022-10-17T19:31:02.082Z,100933.31
2022-10-17T19:33:35.624Z,100935.31
2022-10-17T19:36:12.221Z,100941.97
2022-10-17T19:38:45.238Z,100942.03
2022-10-17T19:41:18.027Z,100938.28
2022-10-17T19:43:51.110Z,100949.56
2022-10-17T19:46:27.603Z,100947.38
2022-10-17T19:49:00.659Z,100946.91
2022-10-17T19:51:34.927Z,100936.84
2022-10-17T19:54:07.773Z,100942.13
2022-10-17T19:56:43.404Z,100950.47
2022-10-17T19:59:18.073Z,100952.81
2022-10-17T20:01:51.045Z,100963.69
2022-10-17T20:04:24.100Z,100965.56
2022-10-17T20:07:00.022Z,100980.72
2022-10-17T20:09:32.819Z,100985.31
2022-10-17T20:12:05.650Z,100986.84
2022-10-17T20:14:41.010Z,100981.91
2022-10-17T20:17:14.052Z,100966.44
2022-10-17T20:19:47.139Z,100968.63
2022-10-17T20:22:21.940Z,100969.31
2022-10-17T20:24:54.713Z,100982.25
2022-10-17T20:27:27.889Z,100987.88
2022-10-17T20:30:02.022Z,100995.88
2022-10-17T20:32:39.649Z,100994.72
2022-10-17T20:35:12.693Z,101007.81
2022-10-17T20:37:46.954Z,101014.94
2022-10-17T20:40:34.732Z,101016.44
2022-10-17T20:43:09.516Z,101017.47
2022-10-17T20:45:51.757Z,101026.81
2022-10-17T20:48:25.273Z,101019.81
2022-10-17T20:50:58.130Z,101022.56
2022-10-17T20:53:37.074Z,101014.56
2022-10-17T20:56:18.261Z,101025.63
2022-10-17T20:58:52.659Z,101035.13
2022-10-17T21:01:26.915Z,101044.63
2022-10-17T21:04:10.549Z,101049.53
2022-10-17T21:06:51.323Z,101059.69
2022-10-17T21:09:25.605Z,101065.09
2022-10-17T21:11:58.632Z,101063.03
2022-10-17T21:14:31.916Z,101067.25
2022-10-17T21:17:05.695Z,101067.22
2022-10-17T21:19:38.564Z,101070.41
2022-10-17T21:22:11.357Z,101067.69
2022-10-17T21:24:45.533Z,101067.84
2022-10-17T21:27:20.468Z,101074.00
2022-10-17T21:29:53.243Z,101062.97
2022-10-17T21:32:40.376Z,101075.00
2022-10-17T21:35:18.988Z,101076.63
2022-10-17T21:37:52.504Z,101082.47
2022-10-17T21:40:26.690Z,101086.72
2022-10-17T21:42:59.584Z,101080.91
2022-10-17T21:45:32.614Z,101095.31
2022-10-17T21:48:13.594Z,101095.47
2022-10-17T21:50:46.626Z,101093.00
2022-10-17T21:53:19.426Z,101102.72
2022-10-17T21:55:53.622Z,101099.06
2022-10-17T21:58:26.417Z,101102.09
2022-10-17T22:01:05.026Z,101096.22
2022-10-17T22:03:42.687Z,101089.94
2022-10-17T22:09:16.499Z,101095.13
2022-10-17T22:11:52.997Z,101109.72
2022-10-17T22:14:28.177Z,101116.25
2022-10-17T22:17:01.459Z,101118.13
2022-10-17T22:19:34.284Z,101119.63
2022-10-17T22:22:07.128Z,101122.66
2022-10-17T22:24:39.994Z,101110.75
2022-10-17T22:27:14.308Z,101117.22
2022-10-17T22:29:47.093Z,101110.34
2022-10-17T22:32:22.378Z,101117.63
2022-10-17T22:34:55.527Z,101103.69
2022-10-17T22:37:28.472Z,101110.91
2022-10-17T22:40:01.424Z,101115.53
2022-10-17T22:42:35.586Z,101120.59
2022-10-17T22:45:09.110Z,101130.72
2022-10-17T22:47:41.892Z,101131.03
2022-10-17T22:50:14.827Z,101139.97
2022-10-17T22:52:47.882Z,101140.41
2022-10-17T22:55:20.743Z,101146.63
2022-10-17T22:57:54.890Z,101143.22
2022-10-17T23:03:01.622Z,101142.38
2022-10-17T23:05:34.406Z,101127.78
2022-10-17T23:08:07.487Z,101124.34
2022-10-17T23:10:41.441Z,101113.78
2022-10-17T23:13:16.540Z,101121.97
2022-10-17T23:15:52.768Z,101131.97
2022-10-17T23:18:27.246Z,101142.56
2022-10-17T23:21:00.151Z,101153.13
2022-10-17T23:23:32.955Z,101160.91
2022-10-17T23:26:07.858Z,101158.03
2022-10-17T23:28:43.018Z,101162.41
2022-10-17T23:31:18.018Z,101157.66
2022-10-17T23:33:51.313Z,101141.66
2022-10-17T23:36:24.265Z,101148.66
2022-10-17T23:38:58.551Z,101151.06
2022-10-17T23:41:31.574Z,101154.50
2022-10-17T23:44:06.269Z,101172.31
2022-10-17T23:46:39.520Z,101172.97
2022-10-17T23:49:12.534Z,101174.81
2022-10-17T23:51:45.339Z,101180.25
2022-10-17T23:54:18.195Z,101175.16
2022-10-17T23:56:51.120Z,101183.53
2022-10-17T23:59:25.409Z,101177.72
